createdAt,value
2023-04-11T00:00:09.595Z,10.1
2023-04-11T00:03:11.038Z,10
2023-04-11T00:06:09.502Z,9.9
2023-04-11T00:09:09.452Z,9.8
2023-04-11T00:12:09.460Z,9.8
2023-04-11T00:15:09.522Z,9.8
2023-04-11T00:18:09.886Z,9.8
2023-04-11T00:21:09.444Z,9.6
2023-04-11T00:24:09.501Z,9.6
2023-04-11T00:27:09.468Z,9.5
2023-04-11T00:30:09.607Z,9.4
2023-04-11T00:33:09.795Z,9.4
2023-04-11T00:36:10.148Z,9.3
2023-04-11T00:39:09.424Z,9.2
2023-04-11T00:42:09.451Z,9.1
2023-04-11T00:45:09.498Z,9.1
2023-04-11T00:48:10.103Z,8.9
2023-04-11T00:51:09.411Z,8.9
2023-04-11T00:54:09.499Z,8.9
2023-04-11T00:57:09.466Z,8.8
2023-04-11T01:00:09.541Z,8.7
2023-04-11T01:03:10.458Z,8.6
2023-04-11T01:06:09.490Z,8.6
2023-04-11T01:09:09.452Z,8.6
2023-04-11T01:12:09.551Z,8.7
2023-04-11T01:15:10.048Z,8.7
2023-04-11T01:18:09.825Z,8.7
2023-04-11T01:21:09.512Z,8.6
2023-04-11T01:24:09.487Z,8.6
2023-04-11T01:27:09.462Z,8.7
2023-04-11T01:30:09.472Z,8.7
2023-04-11T01:33:09.692Z,8.7
2023-04-11T01:36:09.751Z,8.7
2023-04-11T01:39:09.531Z,8.7
2023-04-11T01:42:09.487Z,8.7
2023-04-11T01:45:09.507Z,8.7
2023-04-11T01:48:10.052Z,8.6
2023-04-11T01:51:09.526Z,8.6
2023-04-11T01:54:09.460Z,8.6
2023-04-11T01:57:09.442Z,8.4
2023-04-11T02:00:09.503Z,8.4
2023-04-11T02:03:10.391Z,8.4
2023-04-11T02:06:09.446Z,8.4
2023-04-11T02:09:09.431Z,8.4
2023-04-11T02:12:09.577Z,8.4
2023-04-11T02:15:09.714Z,8.4
2023-04-11T02:18:09.919Z,8.4
2023-04-11T02:21:09.558Z,8.4
2023-04-11T02:24:09.822Z,8.3
2023-04-11T02:27:09.458Z,8.3
2023-04-11T02:30:09.572Z,8.3
2023-04-11T02:33:09.978Z,8.3
2023-04-11T02:36:10.010Z,8.3
2023-04-11T02:39:09.478Z,8.3
2023-04-11T02:42:09.507Z,8.4
2023-04-11T02:45:09.602Z,8.3
2023-04-11T02:48:09.671Z,8.4
2023-04-11T02:51:09.424Z,8.3
2023-04-11T02:54:09.441Z,8.3
2023-04-11T02:57:09.472Z,8.3
2023-04-11T03:00:09.567Z,8.2
2023-04-11T03:03:10.651Z,8.3
2023-04-11T03:06:09.442Z,8.2
2023-04-11T03:09:09.530Z,8.2
2023-04-11T03:12:09.397Z,8.1
2023-04-11T03:15:09.512Z,8.1
2023-04-11T03:18:09.851Z,8.1
2023-04-11T03:21:09.464Z,8.1
2023-04-11T03:24:09.419Z,8.1
2023-04-11T03:27:09.460Z,8
2023-04-11T03:30:09.602Z,7.9
2023-04-11T03:33:09.943Z,7.9
2023-04-11T03:36:09.640Z,7.7
2023-04-11T03:39:09.468Z,7.7
2023-04-11T03:42:09.408Z,7.6
2023-04-11T03:45:09.516Z,7.6
2023-04-11T03:48:09.781Z,7.6
2023-04-11T03:51:09.518Z,7.5
2023-04-11T03:54:09.431Z,7.4
2023-04-11T03:57:09.465Z,7.5
2023-04-11T04:00:09.643Z,7.6
2023-04-11T04:03:11.082Z,7.6
2023-04-11T04:06:09.670Z,7.7
2023-04-11T04:09:09.610Z,7.8
2023-04-11T04:12:09.416Z,7.9
2023-04-11T04:15:09.578Z,8.1
2023-04-11T04:18:10.052Z,8.1
2023-04-11T04:21:09.483Z,8.2
2023-04-11T04:24:09.498Z,8.3
2023-04-11T04:27:09.467Z,8.3
2023-04-11T04:30:13.612Z,8.4
2023-04-11T04:33:09.676Z,8.4
2023-04-11T04:36:09.805Z,8.4
2023-04-11T04:39:09.476Z,8.5
2023-04-11T04:42:09.504Z,8.6
2023-04-11T04:45:09.954Z,8.5
2023-04-11T04:48:09.799Z,8.4
2023-04-11T04:51:09.576Z,8.4
2023-04-11T04:54:09.603Z,8.4
2023-04-11T04:57:09.470Z,8.4
2023-04-11T05:00:09.710Z,8.4
2023-04-11T05:03:10.773Z,8.5
2023-04-11T05:06:09.567Z,8.5
2023-04-11T05:09:09.470Z,8.5
2023-04-11T05:12:11.608Z,8.5
2023-04-11T05:15:09.608Z,8.6
2023-04-11T05:18:09.752Z,8.6
2023-04-11T05:21:09.528Z,8.6
2023-04-11T05:24:09.505Z,8.7
2023-04-11T05:27:09.529Z,8.8
2023-04-11T05:30:09.904Z,8.8
2023-04-11T05:33:09.970Z,8.8
2023-04-11T05:36:09.687Z,8.6
2023-04-11T05:39:09.563Z,8.3
2023-04-11T05:42:11.799Z,8
2023-04-11T05:45:09.582Z,7.7
2023-04-11T05:48:09.883Z,7.6
2023-04-11T05:51:09.587Z,7.6
2023-04-11T05:54:09.522Z,7.3
2023-04-11T05:57:09.573Z,7.1
2023-04-11T06:00:09.609Z,6.9
2023-04-11T06:03:10.403Z,6.9
2023-04-11T06:06:09.522Z,7
2023-04-11T06:09:09.538Z,7
2023-04-11T06:12:09.468Z,7.1
2023-04-11T06:15:09.575Z,7.2
2023-04-11T06:18:09.869Z,7.7
2023-04-11T06:21:09.581Z,9.1
2023-04-11T06:24:09.453Z,10.4
2023-04-11T06:27:09.533Z,11.5
2023-04-11T06:30:09.514Z,12.4
2023-04-11T06:33:09.865Z,13
2023-04-11T06:36:12.764Z,13.1
2023-04-11T06:39:09.544Z,13.7
2023-04-11T06:42:09.537Z,13.9
2023-04-11T06:45:10.595Z,14.3
2023-04-11T06:48:09.881Z,14.4
2023-04-11T06:51:09.664Z,14.6
2023-04-11T06:54:09.528Z,14.7
2023-04-11T06:57:09.516Z,15.2
2023-04-11T07:00:09.901Z,14.7
2023-04-11T07:03:11.230Z,14.4
2023-04-11T07:06:09.485Z,14.8
2023-04-11T07:09:09.603Z,15.3
2023-04-11T07:12:09.570Z,15.6
2023-04-11T07:15:09.499Z,15.8
2023-04-11T07:18:09.825Z,16.1
2023-04-11T07:21:09.471Z,15.6
2023-04-11T07:24:09.801Z,14.7
2023-04-11T07:27:09.687Z,14.6
2023-04-11T07:30:09.709Z,13.6
2023-04-11T07:33:09.785Z,9.8
2023-04-11T07:36:09.781Z,7.1
2023-04-11T07:39:09.509Z,6.1
2023-04-11T07:42:09.545Z,5.9
2023-04-11T07:45:09.566Z,5.9
2023-04-11T07:48:09.726Z,5.9
2023-04-11T07:51:09.535Z,6.1
2023-04-11T07:54:09.600Z,6.1
2023-04-11T07:57:09.464Z,6.3
2023-04-11T08:00:11.906Z,6.4
2023-04-11T08:03:11.243Z,6.7
2023-04-11T08:06:09.640Z,7
2023-04-11T08:09:09.637Z,7.3
2023-04-11T08:12:09.509Z,7.7
2023-04-11T08:15:09.597Z,8.1
2023-04-11T08:18:12.139Z,8.6
2023-04-11T08:21:09.552Z,9.4
2023-04-11T08:24:09.699Z,10.3
2023-04-11T08:27:09.825Z,11.1
2023-04-11T08:30:09.636Z,11.4
2023-04-11T08:33:09.717Z,11.6
2023-04-11T08:36:09.900Z,11.3
2023-04-11T08:39:09.514Z,10.9
2023-04-11T08:42:09.585Z,10.5
2023-04-11T08:45:09.730Z,10
2023-04-11T08:48:10.580Z,9.9
2023-04-11T08:51:09.590Z,9.8
2023-04-11T08:54:09.588Z,10.1
2023-04-11T08:57:09.488Z,10.6
2023-04-11T09:00:09.710Z,11.2
2023-04-11T09:03:10.486Z,11.7
2023-04-11T09:06:09.444Z,12.2
2023-04-11T09:09:09.601Z,12.3
2023-04-11T09:12:09.523Z,12.8
2023-04-11T09:15:09.623Z,12.8
2023-04-11T09:18:10.410Z,13.1
2023-04-11T09:21:09.661Z,13.3
2023-04-11T09:24:09.540Z,13.4
2023-04-11T09:27:09.683Z,13.4
2023-04-11T09:30:09.541Z,13.8
2023-04-11T09:33:09.778Z,13.2
2023-04-11T09:36:09.834Z,12.6
2023-04-11T09:39:09.485Z,11.8
2023-04-11T09:42:09.603Z,11.3
2023-04-11T09:45:09.663Z,11.5
2023-04-11T09:48:09.935Z,11.8
2023-04-11T09:51:09.475Z,12.6
2023-04-11T09:54:10.717Z,14
2023-04-11T09:57:09.602Z,13.3
2023-04-11T10:00:09.506Z,13.2
2023-04-11T10:03:10.585Z,12.6
2023-04-11T10:06:09.633Z,12.4
2023-04-11T10:09:09.650Z,12.4
2023-04-11T10:12:09.459Z,12.2
2023-04-11T10:15:09.539Z,12.2
2023-04-11T10:18:10.036Z,12.3
2023-04-11T10:21:09.535Z,12.1
2023-04-11T10:24:09.497Z,11.9
2023-04-11T10:27:09.520Z,11.6
2023-04-11T10:30:09.595Z,11.7
2023-04-11T10:33:10.002Z,12.1
2023-04-11T10:36:10.304Z,12.8
2023-04-11T10:39:09.527Z,13.2
2023-04-11T10:42:09.558Z,13.5
2023-04-11T10:45:09.469Z,14
2023-04-11T10:48:10.228Z,14.1
2023-04-11T10:51:09.481Z,14.1
2023-04-11T10:54:11.446Z,13.1
2023-04-11T10:57:09.493Z,12.6
2023-04-11T11:00:09.910Z,12.2
2023-04-11T11:03:10.528Z,11.6
2023-04-11T11:06:09.541Z,11.3
2023-04-11T11:09:09.495Z,11.5
2023-04-11T11:12:09.515Z,12.8
2023-04-11T11:15:09.617Z,13.4
2023-04-11T11:18:09.856Z,13.8
2023-04-11T11:21:24.725Z,14.3
2023-04-11T11:24:09.494Z,14.8
2023-04-11T11:27:09.647Z,15.1
2023-04-11T11:30:09.535Z,15.6
2023-04-11T11:33:09.970Z,15.1
2023-04-11T11:36:09.517Z,15.4
2023-04-11T11:39:09.543Z,15.8
2023-04-11T11:42:09.460Z,15.6
2023-04-11T11:45:09.495Z,15.3
2023-04-11T11:48:11.464Z,14.9
2023-04-11T11:51:09.503Z,14.2
2023-04-11T11:54:09.538Z,13.6
2023-04-11T11:57:09.624Z,13.5
2023-04-11T12:00:09.619Z,13.1
2023-04-11T12:03:10.473Z,12.7
2023-04-11T12:06:09.476Z,12.6
2023-04-11T12:09:09.631Z,12.4
2023-04-11T12:12:09.520Z,12.2
2023-04-11T12:15:09.563Z,12.6
2023-04-11T12:18:09.851Z,13.3
2023-04-11T12:21:09.382Z,14.4
2023-04-11T12:24:09.562Z,14.9
2023-04-11T12:30:09.657Z,13.7
2023-04-11T12:33:10.024Z,13.1
2023-04-11T12:36:09.685Z,13.4
2023-04-11T12:39:09.675Z,13.9
2023-04-11T12:42:10.093Z,14.9
2023-04-11T12:45:09.514Z,15
2023-04-11T12:48:10.059Z,14.4
2023-04-11T12:51:09.534Z,13.9
2023-04-11T12:54:09.553Z,13.4
2023-04-11T12:57:09.435Z,13.3
2023-04-11T13:00:09.654Z,13
2023-04-11T13:03:11.042Z,13
2023-04-11T13:06:09.541Z,13
2023-04-11T13:09:11.366Z,12.6
2023-04-11T13:12:09.591Z,12.3
2023-04-11T13:15:09.666Z,12.2
2023-04-11T13:18:09.826Z,12.1
2023-04-11T13:21:09.560Z,12
2023-04-11T13:24:09.553Z,11.9
2023-04-11T13:27:09.586Z,11.8
2023-04-11T13:30:09.561Z,11.8
2023-04-11T13:33:09.804Z,12.1
2023-04-11T13:36:09.531Z,12.2
2023-04-11T13:39:09.643Z,12.4
2023-04-11T13:42:09.626Z,12.6
2023-04-11T13:45:09.610Z,13.4
2023-04-11T13:48:10.015Z,13.9
2023-04-11T13:51:09.611Z,13.7
2023-04-11T13:54:09.638Z,13.3
2023-04-11T13:57:09.778Z,12.9
2023-04-11T14:00:09.720Z,12.7
2023-04-11T14:03:10.556Z,12.7
2023-04-11T14:06:09.873Z,12.6
2023-04-11T14:09:09.643Z,11.4
2023-04-11T14:12:09.926Z,10.1
2023-04-11T14:15:09.709Z,9.4
2023-04-11T14:18:10.088Z,9.3
2023-04-11T14:21:09.659Z,8.8
2023-04-11T14:24:09.704Z,8.6
2023-04-11T14:27:09.540Z,8.8
2023-04-11T14:30:09.598Z,8.8
2023-04-11T14:33:09.743Z,8.8
2023-04-11T14:36:09.587Z,8.8
2023-04-11T14:39:09.608Z,8.8
2023-04-11T14:42:09.500Z,8.8
2023-04-11T14:45:09.707Z,8.8
2023-04-11T14:48:10.009Z,8.8
2023-04-11T14:51:09.520Z,8.8
2023-04-11T14:54:09.492Z,8.9
2023-04-11T14:57:09.487Z,8.9
2023-04-11T15:00:09.654Z,8.8
2023-04-11T15:03:10.496Z,8.5
2023-04-11T15:06:09.612Z,8.4
2023-04-11T15:09:09.524Z,8.4
2023-04-11T15:12:09.487Z,8.4
2023-04-11T15:15:09.698Z,8.2
2023-04-11T15:18:09.773Z,7.7
2023-04-11T15:21:09.601Z,7.4
2023-04-11T15:24:09.669Z,7.2
2023-04-11T15:27:09.592Z,7.2
2023-04-11T15:30:09.715Z,7.2
2023-04-11T15:33:09.829Z,7.2
2023-04-11T15:36:10.026Z,7.2
2023-04-11T15:39:09.507Z,7.2
2023-04-11T15:42:09.495Z,7.2
2023-04-11T15:45:09.639Z,7.1
2023-04-11T15:48:09.961Z,7
2023-04-11T15:51:09.465Z,7
2023-04-11T15:54:09.554Z,7.3
2023-04-11T15:57:09.495Z,7.6
2023-04-11T16:00:09.802Z,7.9
2023-04-11T16:03:11.468Z,8.2
2023-04-11T16:06:09.581Z,8.4
2023-04-11T16:09:09.540Z,8.5
2023-04-11T16:12:09.565Z,8.6
2023-04-11T16:15:09.510Z,9
2023-04-11T16:18:10.265Z,9.7
2023-04-11T16:21:09.529Z,10.1
2023-04-11T16:24:09.693Z,10.4
2023-04-11T16:27:09.451Z,10.6
2023-04-11T16:30:09.673Z,10.5
2023-04-11T16:33:09.856Z,10.8
2023-04-11T16:36:10.089Z,10.4
2023-04-11T16:39:09.695Z,10.3
2023-04-11T16:42:09.523Z,10.1
2023-04-11T16:45:09.542Z,10.1
2023-04-11T16:48:10.037Z,10.1
2023-04-11T16:51:09.566Z,9.9
2023-04-11T16:54:09.622Z,9.9
2023-04-11T16:57:09.493Z,10.1
2023-04-11T17:00:09.826Z,9.9
2023-04-11T17:03:10.707Z,9.9
2023-04-11T17:06:09.569Z,9.9
2023-04-11T17:09:09.567Z,9.8
2023-04-11T17:12:09.536Z,9.6
2023-04-11T17:15:09.554Z,9.5
2023-04-11T17:18:09.784Z,9.3
2023-04-11T17:21:09.742Z,9.1
2023-04-11T17:24:10.458Z,8.9
2023-04-11T17:27:09.571Z,8.6
2023-04-11T17:30:09.750Z,8.4
2023-04-11T17:33:09.784Z,8.2
2023-04-11T17:36:10.070Z,8.1
2023-04-11T17:39:09.507Z,7.8
2023-04-11T17:42:09.477Z,7.6
2023-04-11T17:45:26.314Z,7.4
2023-04-11T17:48:09.940Z,7.2
2023-04-11T17:51:09.461Z,6.9
2023-04-11T17:54:09.579Z,6.7
2023-04-11T17:57:09.505Z,6.4
2023-04-11T18:00:09.644Z,6.1
2023-04-11T18:03:10.718Z,5.7
2023-04-11T18:06:09.573Z,5.6
2023-04-11T18:09:09.596Z,5.4
2023-04-11T18:12:09.569Z,5.2
2023-04-11T18:15:09.470Z,5.1
2023-04-11T18:18:09.977Z,4.8
2023-04-11T18:21:13.037Z,4.7
2023-04-11T18:24:09.461Z,4.6
2023-04-11T18:27:10.526Z,4.6
2023-04-11T18:30:09.549Z,4.3
2023-04-11T18:33:09.666Z,4.2
2023-04-11T18:36:09.848Z,4.1
2023-04-11T18:39:09.518Z,4.1
2023-04-11T18:42:09.629Z,4
2023-04-11T18:45:09.640Z,4.1
2023-04-11T18:48:10.496Z,3.9
2023-04-11T18:51:09.494Z,3.7
2023-04-11T18:54:09.516Z,3.7
2023-04-11T18:57:11.962Z,3.6
2023-04-11T19:00:21.175Z,3.6
2023-04-11T19:03:11.295Z,3.5
2023-04-11T19:06:11.553Z,3.5
2023-04-11T19:09:09.452Z,3.5
2023-04-11T19:12:09.557Z,3.4
2023-04-11T19:15:09.528Z,3.3
2023-04-11T19:18:10.467Z,3.2
2023-04-11T19:21:09.479Z,3.1
2023-04-11T19:24:09.438Z,3
2023-04-11T19:27:09.436Z,2.7
2023-04-11T19:30:09.401Z,2.6
2023-04-11T19:33:09.782Z,2.4
2023-04-11T19:36:09.964Z,2.4
2023-04-11T19:39:09.518Z,2.3
2023-04-11T19:42:09.425Z,2.4
2023-04-11T19:45:09.544Z,2.4
2023-04-11T19:48:09.864Z,2.4
2023-04-11T19:51:11.751Z,2.2
2023-04-11T19:54:09.479Z,2.1
2023-04-11T19:57:09.487Z,2
2023-04-11T20:00:09.534Z,2.1
2023-04-11T20:03:10.623Z,2
2023-04-11T20:06:12.139Z,2
2023-04-11T20:09:09.433Z,2
2023-04-11T20:12:09.452Z,1.9
2023-04-11T20:15:09.434Z,1.8
2023-04-11T20:18:09.773Z,1.7
2023-04-11T20:21:09.470Z,1.6
2023-04-11T20:24:09.483Z,1.7
2023-04-11T20:27:09.461Z,1.6
2023-04-11T20:30:09.504Z,1.6
2023-04-11T20:33:09.778Z,1.6
2023-04-11T20:36:09.906Z,1.6
2023-04-11T20:39:09.634Z,1.5
2023-04-11T20:42:09.372Z,1.4
2023-04-11T20:45:09.579Z,1.5
2023-04-11T20:48:09.765Z,1.4
2023-04-11T20:51:09.408Z,1.4
2023-04-11T20:54:09.569Z,1.3
2023-04-11T20:57:09.487Z,1.3
2023-04-11T21:00:09.474Z,1.3
2023-04-11T21:03:10.559Z,1.1
2023-04-11T21:06:09.530Z,1.1
2023-04-11T21:09:09.554Z,1.1
2023-04-11T21:12:09.455Z,0.9
2023-04-11T21:15:09.477Z,0.9
2023-04-11T21:18:12.210Z,0.9
2023-04-11T21:21:09.446Z,0.9
2023-04-11T21:24:09.444Z,0.7
2023-04-11T21:27:09.542Z,0.8
2023-04-11T21:30:09.542Z,0.7
2023-04-11T21:33:09.986Z,0.8
2023-04-11T21:36:09.686Z,0.6
2023-04-11T21:39:09.541Z,0.4
2023-04-11T21:42:09.489Z,0.4
2023-04-11T21:45:09.463Z,0.4
2023-04-11T21:48:09.819Z,0.4
2023-04-11T21:51:09.481Z,0.3
2023-04-11T21:54:09.501Z,0.3
2023-04-11T21:57:09.447Z,0.4
2023-04-11T22:00:10.082Z,0.4
2023-04-11T22:03:11.141Z,0.4
2023-04-11T22:06:09.501Z,0.5
2023-04-11T22:09:09.449Z,0.6
2023-04-11T22:12:09.430Z,0.8
2023-04-11T22:15:09.599Z,0.9
2023-04-11T22:18:09.869Z,0.9
2023-04-11T22:21:09.543Z,0.7
2023-04-11T22:24:09.757Z,0.5
2023-04-11T22:27:09.462Z,0.4
2023-04-11T22:30:09.626Z,0.3
2023-04-11T22:33:09.936Z,0.3
2023-04-11T22:36:09.673Z,0.1
2023-04-11T22:39:09.452Z,0.2
2023-04-11T22:42:09.504Z,0.2
2023-04-11T22:45:09.427Z,0.1
2023-04-11T22:48:09.756Z,0.1
2023-04-11T22:51:09.379Z,1.9
2023-04-11T22:54:09.481Z,1.9
2023-04-11T22:57:09.481Z,1.8
2023-04-11T23:00:09.641Z,1.9
2023-04-11T23:03:09.994Z,0.1
2023-04-11T23:06:09.543Z,0.3
2023-04-11T23:09:09.494Z,0.3
2023-04-11T23:12:09.488Z,0.2
2023-04-11T23:15:09.572Z,0.1
2023-04-11T23:18:09.784Z,0.1
2023-04-11T23:21:09.583Z,0.1
2023-04-11T23:24:09.485Z,0.1
2023-04-11T23:27:09.436Z,0.1
2023-04-11T23:30:09.534Z,0.1
2023-04-11T23:33:10.169Z,1.9
2023-04-11T23:36:09.723Z,1.9
2023-04-11T23:39:09.500Z,1.9
2023-04-11T23:42:09.492Z,1.8
2023-04-11T23:45:09.521Z,1.7
2023-04-11T23:48:09.692Z,1.6
2023-04-11T23:51:09.511Z,1.6
2023-04-11T23:54:09.827Z,1.7
2023-04-11T23:57:09.460Z,1.7
